KHM weather

Kanti Airport
Kanti, Sagaing Division, Burma

Public forecast

Using degrees Celsius for public forecast. Weather courtesy of forecast.io.

METAR (pilot weather report)

Report is more than 2 hours old.

Closest report is Dibrugarh Airport, 96.5 nm (178.7 km) NNW. Retrieved 2019/08/25 12:30 UTC (3 hours ago):

VEMN 251230Z 31003KT 5000 HZ FEW025 33/26 Q1000 NOSIG

TAF (pilot weather forecast)

Closest forecast is Jorhat Airport, 92.2 nm (170.7 km) WNW. Retrieved 2019/08/25 12:30 UTC (3 hours ago):

TAF VEJT 250930Z 2512/2600 02005KT 6000 FEW025 SCT090 TEMPO 2512/2515 VRB02KT 6000 FEW025 FEW030TCU BKN250